createdAt,value
2022-08-10T00:00:03.446Z,30.30
2022-08-10T00:02:53.928Z,30.20
2022-08-10T00:05:43.791Z,30.30
2022-08-10T00:08:38.877Z,30.20
2022-08-10T00:11:26.055Z,30.20
2022-08-10T00:14:11.973Z,30.20
2022-08-10T00:16:57.744Z,30.20
2022-08-10T00:20:03.138Z,30.20
2022-08-10T00:22:57.413Z,30.10
2022-08-10T00:25:44.460Z,30.20
2022-08-10T00:28:30.678Z,30.20
2022-08-10T00:31:16.485Z,30.30
2022-08-10T00:34:02.493Z,30.20
2022-08-10T00:36:48.258Z,30.20
2022-08-10T00:39:36.456Z,30.20
2022-08-10T00:42:25.880Z,30.20
2022-08-10T00:45:11.670Z,30.20
2022-08-10T00:47:57.961Z,30.10
2022-08-10T00:50:44.135Z,30.10
2022-08-10T00:53:30.504Z,30.10
2022-08-10T00:57:17.110Z,30.00
2022-08-10T00:59:23.736Z,30.00
2022-08-10T01:02:11.839Z,29.90
2022-08-10T01:05:06.338Z,29.80
2022-08-10T01:08:29.534Z,29.90
2022-08-10T01:12:37.694Z,29.90
2022-08-10T01:14:41.831Z,29.80
2022-08-10T01:17:54.393Z,29.90
2022-08-10T01:20:56.092Z,29.80
2022-08-10T01:23:51.157Z,29.80
2022-08-10T01:26:57.093Z,29.80
2022-08-10T01:30:13.562Z,29.60
2022-08-10T01:33:20.290Z,29.60
2022-08-10T01:36:31.922Z,29.60
2022-08-10T01:39:32.987Z,29.60
2022-08-10T01:42:21.551Z,29.50
2022-08-10T01:45:10.598Z,29.50
2022-08-10T01:48:18.323Z,29.40
2022-08-10T01:51:49.668Z,29.30
2022-08-10T01:54:35.950Z,29.30
2022-08-10T01:57:48.419Z,29.30
2022-08-10T02:00:39.113Z,29.20
2022-08-10T02:03:26.469Z,29.20
2022-08-10T02:06:14.248Z,29.10
2022-08-10T02:09:06.510Z,29.10
2022-08-10T02:12:07.635Z,29.10
2022-08-10T02:15:01.056Z,29.00
2022-08-10T02:18:00.637Z,28.90
2022-08-10T02:20:50.294Z,28.90
2022-08-10T02:23:39.696Z,28.90
2022-08-10T02:26:26.257Z,29.00
2022-08-10T02:29:15.440Z,28.90
2022-08-10T02:32:02.854Z,29.00
2022-08-10T02:34:50.685Z,28.90
2022-08-10T02:37:40.405Z,28.90
2022-08-10T02:42:18.067Z,28.90
2022-08-10T02:45:18.410Z,28.80
2022-08-10T02:47:07.626Z,28.90
2022-08-10T02:50:18.924Z,28.80
2022-08-10T02:53:55.099Z,28.70
2022-08-10T02:56:49.783Z,28.70
2022-08-10T02:59:43.207Z,28.70
2022-08-10T03:02:43.504Z,28.70
2022-08-10T03:05:29.537Z,28.70
2022-08-10T03:08:21.199Z,28.70
2022-08-10T03:11:10.474Z,28.70
2022-08-10T03:13:59.632Z,28.70
2022-08-10T03:16:46.653Z,28.60
2022-08-10T03:20:33.908Z,28.60
2022-08-10T03:22:42.633Z,28.60
2022-08-10T03:25:29.883Z,28.50
2022-08-10T03:28:20.395Z,28.50
2022-08-10T03:31:07.560Z,28.40
2022-08-10T03:33:54.053Z,28.30
2022-08-10T03:36:45.036Z,28.30
2022-08-10T03:39:32.143Z,28.30
2022-08-10T03:42:20.327Z,28.30
2022-08-10T03:45:07.945Z,28.30
2022-08-10T03:47:56.482Z,28.30
2022-08-10T03:50:50.771Z,28.30
2022-08-10T03:54:02.702Z,28.20
2022-08-10T03:56:45.396Z,28.20
2022-08-10T03:59:31.801Z,28.00
2022-08-10T04:02:45.311Z,27.90
2022-08-10T04:05:24.015Z,27.70
2022-08-10T04:08:24.672Z,27.90
2022-08-10T04:11:11.420Z,28.00
2022-08-10T04:13:57.750Z,28.00
2022-08-10T04:16:43.842Z,28.00
2022-08-10T04:19:37.643Z,27.90
2022-08-10T04:22:27.620Z,27.90
2022-08-10T04:25:15.103Z,27.90
2022-08-10T04:28:01.314Z,27.90
2022-08-10T04:30:52.927Z,27.90
2022-08-10T04:33:45.837Z,27.90
2022-08-10T04:36:32.992Z,28.00
2022-08-10T04:39:20.142Z,27.90
2022-08-10T04:42:06.970Z,27.90
2022-08-10T04:44:54.232Z,27.80
2022-08-10T04:47:51.250Z,27.80
2022-08-10T04:50:43.993Z,27.70
2022-08-10T04:53:34.339Z,27.80
2022-08-10T04:56:40.992Z,27.80
2022-08-10T04:59:27.092Z,27.90
2022-08-10T05:02:38.795Z,27.80
2022-08-10T05:05:20.417Z,27.80
2022-08-10T05:08:09.450Z,27.80
2022-08-10T05:10:55.466Z,27.80
2022-08-10T05:13:41.129Z,27.90
2022-08-10T05:16:31.790Z,27.90
2022-08-10T05:20:01.312Z,27.90
2022-08-10T05:22:25.556Z,27.90
2022-08-10T05:25:13.398Z,27.80
2022-08-10T05:28:02.970Z,27.90
2022-08-10T05:30:52.186Z,27.90
2022-08-10T05:33:38.570Z,27.90
2022-08-10T05:36:25.073Z,27.80
2022-08-10T05:39:12.486Z,27.80
2022-08-10T05:42:01.512Z,27.90
2022-08-10T05:44:47.859Z,27.90
2022-08-10T05:48:57.852Z,27.90
2022-08-10T05:50:39.962Z,27.90
2022-08-10T05:54:02.964Z,27.90
2022-08-10T05:56:56.746Z,27.90
2022-08-10T06:00:10.923Z,28.00
2022-08-10T06:03:04.565Z,28.00
2022-08-10T06:05:54.730Z,28.10
2022-08-10T06:08:42.774Z,28.10
2022-08-10T06:12:26.979Z,28.00
2022-08-10T06:14:59.497Z,28.10
2022-08-10T06:17:47.377Z,28.10
2022-08-10T06:20:48.047Z,28.20
2022-08-10T06:23:34.963Z,28.20
2022-08-10T06:26:21.847Z,28.30
2022-08-10T06:29:11.698Z,28.40
2022-08-10T06:31:59.004Z,28.40
2022-08-10T06:34:56.407Z,28.50
2022-08-10T06:37:50.999Z,28.60
2022-08-10T06:40:43.259Z,28.70
2022-08-10T06:43:31.128Z,28.80
2022-08-10T06:46:22.368Z,28.70
2022-08-10T06:49:10.615Z,28.60
2022-08-10T06:51:57.798Z,28.70
2022-08-10T06:54:45.172Z,28.70
2022-08-10T06:57:34.279Z,28.80
2022-08-10T07:00:20.567Z,28.80
2022-08-10T07:03:16.154Z,28.70
2022-08-10T07:06:05.149Z,28.70
2022-08-10T07:08:53.406Z,28.60
2022-08-10T07:11:42.142Z,28.60
2022-08-10T07:14:29.312Z,28.60
2022-08-10T07:17:20.316Z,28.60
2022-08-10T07:20:09.410Z,28.60
2022-08-10T07:23:54.176Z,28.70
2022-08-10T07:26:03.187Z,28.80
2022-08-10T07:28:51.121Z,28.80
2022-08-10T07:31:55.715Z,28.80
2022-08-10T07:34:44.666Z,28.90
2022-08-10T07:37:34.857Z,28.80
2022-08-10T07:40:23.127Z,28.90
2022-08-10T07:43:10.229Z,29.00
2022-08-10T07:45:58.800Z,29.00
2022-08-10T07:48:49.105Z,29.00
2022-08-10T07:51:36.537Z,29.00
2022-08-10T07:54:24.035Z,29.00
2022-08-10T07:57:28.780Z,29.00
2022-08-10T08:00:18.328Z,29.10
2022-08-10T08:03:07.471Z,29.10
2022-08-10T08:05:58.881Z,29.10
2022-08-10T08:08:50.419Z,29.10
2022-08-10T08:11:38.232Z,29.10
2022-08-10T08:14:25.246Z,29.10
2022-08-10T08:17:14.441Z,29.10
2022-08-10T08:20:03.426Z,29.20
2022-08-10T08:24:14.654Z,29.20
2022-08-10T08:25:58.094Z,29.30
2022-08-10T08:28:46.133Z,29.30
2022-08-10T08:31:32.744Z,29.30
2022-08-10T08:34:20.624Z,29.40
2022-08-10T08:37:09.717Z,29.40
2022-08-10T08:39:56.251Z,29.40
2022-08-10T08:42:59.501Z,29.50
2022-08-10T08:46:14.312Z,29.40
2022-08-10T08:50:08.982Z,29.50
2022-08-10T08:52:35.896Z,29.60
2022-08-10T08:56:04.156Z,29.60
2022-08-10T08:59:09.807Z,29.60
2022-08-10T09:02:14.449Z,29.70
2022-08-10T09:05:21.620Z,29.60
2022-08-10T09:08:50.095Z,29.70
2022-08-10T09:11:52.540Z,29.70
2022-08-10T09:15:07.462Z,29.80
2022-08-10T09:18:05.973Z,29.90
2022-08-10T09:21:18.175Z,29.80
2022-08-10T09:24:25.475Z,29.90
2022-08-10T09:27:39.591Z,29.90
2022-08-10T09:30:38.462Z,29.80
2022-08-10T09:36:28.600Z,29.90
2022-08-10T09:36:55.610Z,29.90
2022-08-10T09:40:06.548Z,30.00
2022-08-10T09:43:26.919Z,30.00
2022-08-10T09:46:27.897Z,30.10
2022-08-10T09:49:54.596Z,30.10
2022-08-10T09:52:44.976Z,30.10
2022-08-10T09:56:18.117Z,30.10
2022-08-10T09:59:59.430Z,30.10
2022-08-10T10:03:03.151Z,30.20
2022-08-10T10:05:58.387Z,30.20
2022-08-10T10:09:40.324Z,30.30
2022-08-10T10:12:39.370Z,30.40
2022-08-10T10:15:44.091Z,30.40
2022-08-10T10:18:54.268Z,30.40
2022-08-10T10:22:12.503Z,30.40
2022-08-10T10:25:50.021Z,30.40
2022-08-10T10:29:30.778Z,30.50
2022-08-10T10:32:47.624Z,30.60
2022-08-10T10:35:34.385Z,30.70
2022-08-10T10:38:35.808Z,30.60
2022-08-10T10:41:56.161Z,30.70
2022-08-10T10:45:05.503Z,30.70
2022-08-10T10:48:30.612Z,30.70
2022-08-10T10:51:28.196Z,30.80
2022-08-10T10:54:47.625Z,30.80
2022-08-10T10:58:00.106Z,30.70
2022-08-10T11:01:04.731Z,30.80
2022-08-10T11:04:24.232Z,30.90
2022-08-10T11:07:11.090Z,31.00
2022-08-10T11:10:32.044Z,31.00
2022-08-10T11:14:26.144Z,31.10
2022-08-10T11:16:52.863Z,31.10
2022-08-10T11:20:06.209Z,31.20
2022-08-10T11:23:02.636Z,31.30
2022-08-10T11:26:09.211Z,31.20
2022-08-10T11:29:20.105Z,31.10
2022-08-10T11:32:21.266Z,31.30
2022-08-10T11:35:34.149Z,31.40
2022-08-10T11:39:13.354Z,31.60
2022-08-10T11:42:28.935Z,31.70
2022-08-10T11:45:34.949Z,31.70
2022-08-10T11:48:54.476Z,31.80
2022-08-10T11:51:44.344Z,31.80
2022-08-10T11:54:50.835Z,31.90
2022-08-10T11:57:55.152Z,31.90
2022-08-10T12:00:42.037Z,32.00
2022-08-10T12:03:34.602Z,32.00
2022-08-10T12:06:45.491Z,32.20
2022-08-10T12:10:10.417Z,32.20
2022-08-10T12:12:45.189Z,32.30
2022-08-10T12:15:37.221Z,32.50
2022-08-10T12:18:51.714Z,32.50
2022-08-10T12:21:47.058Z,32.70
2022-08-10T12:24:46.419Z,32.80
2022-08-10T12:27:45.625Z,32.90
2022-08-10T12:30:36.195Z,32.90
2022-08-10T12:33:32.959Z,32.90
2022-08-10T12:36:42.859Z,33.20
2022-08-10T12:39:34.518Z,33.50
2022-08-10T12:43:01.548Z,33.60
2022-08-10T12:45:37.812Z,33.70
2022-08-10T12:48:31.107Z,33.80
2022-08-10T12:51:31.327Z,34.20
2022-08-10T12:54:32.743Z,34.30
2022-08-10T12:57:24.178Z,34.40
2022-08-10T13:00:17.667Z,34.60
2022-08-10T13:03:06.270Z,35.70
2022-08-10T13:05:57.546Z,36.80
2022-08-10T13:09:08.809Z,36.70
2022-08-10T13:12:38.460Z,36.80
2022-08-10T13:15:50.414Z,38.00
2022-08-10T13:18:41.345Z,40.80
2022-08-10T13:21:33.987Z,42.60
2022-08-10T13:24:27.461Z,43.60
2022-08-10T13:27:25.545Z,44.40
2022-08-10T13:30:13.438Z,43.50
2022-08-10T13:33:01.356Z,44.00
2022-08-10T13:35:47.668Z,45.60
2022-08-10T13:38:43.945Z,47.10
2022-08-10T13:41:39.866Z,45.70
2022-08-10T13:44:41.973Z,46.90
2022-08-10T13:47:36.216Z,47.00
2022-08-10T13:50:38.456Z,47.10
2022-08-10T13:53:31.278Z,46.10
2022-08-10T13:56:18.319Z,46.30
2022-08-10T13:59:09.722Z,47.30
2022-08-10T14:02:00.804Z,48.60
2022-08-10T14:04:47.946Z,49.50
2022-08-10T14:07:39.065Z,49.20
2022-08-10T14:11:10.036Z,48.70
2022-08-10T14:14:01.774Z,46.90
2022-08-10T14:16:48.160Z,45.10
2022-08-10T14:19:43.510Z,44.40
2022-08-10T14:22:34.411Z,43.40
2022-08-10T14:25:21.348Z,43.90
2022-08-10T14:28:07.244Z,44.00
2022-08-10T14:31:00.700Z,44.50
2022-08-10T14:33:52.647Z,45.20
2022-08-10T14:36:57.520Z,45.70
2022-08-10T14:39:48.611Z,44.40
2022-08-10T14:42:44.472Z,44.40
2022-08-10T14:45:40.263Z,45.00
2022-08-10T14:48:32.075Z,44.00
2022-08-10T14:51:25.857Z,43.20
2022-08-10T14:54:17.619Z,43.40
2022-08-10T14:57:10.932Z,43.10
2022-08-10T15:00:25.480Z,43.30
2022-08-10T15:03:10.836Z,43.60
2022-08-10T15:06:07.499Z,43.80
2022-08-10T15:09:19.628Z,44.50
2022-08-10T15:12:13.349Z,46.80
2022-08-10T15:15:06.140Z,47.30
2022-08-10T15:17:57.864Z,45.40
2022-08-10T15:20:44.351Z,44.30
2022-08-10T15:24:05.475Z,43.90
2022-08-10T15:26:57.591Z,44.10
2022-08-10T15:29:57.367Z,45.20
2022-08-10T15:33:11.213Z,46.80
2022-08-10T15:36:17.713Z,46.40
2022-08-10T15:40:26.002Z,45.60
2022-08-10T15:42:24.037Z,44.40
2022-08-10T15:45:17.058Z,43.70
2022-08-10T15:48:06.481Z,44.30
2022-08-10T15:51:01.608Z,45.50
2022-08-10T15:54:02.186Z,47.40
2022-08-10T15:57:00.808Z,48.60
2022-08-10T15:59:59.157Z,49.40
2022-08-10T16:02:52.439Z,49.80
2022-08-10T16:06:01.989Z,50.20
2022-08-10T16:08:57.224Z,50.10
2022-08-10T16:12:29.334Z,49.90
2022-08-10T16:15:19.488Z,49.20
2022-08-10T16:18:09.346Z,47.80
2022-08-10T16:21:02.686Z,48.70
2022-08-10T16:24:15.036Z,49.40
2022-08-10T16:27:06.507Z,49.90
2022-08-10T16:30:02.227Z,49.60
2022-08-10T16:32:50.681Z,49.70
2022-08-10T16:35:39.164Z,49.40
2022-08-10T16:38:26.827Z,48.80
2022-08-10T16:42:02.008Z,47.30
2022-08-10T16:44:28.239Z,47.80
2022-08-10T16:47:15.225Z,48.40
2022-08-10T16:50:05.561Z,48.70
2022-08-10T16:52:54.920Z,48.40
2022-08-10T16:55:48.284Z,48.60
2022-08-10T16:58:43.494Z,48.50
2022-08-10T17:01:37.357Z,47.30
2022-08-10T17:04:27.325Z,46.40
2022-08-10T17:07:17.958Z,46.50
2022-08-10T17:10:09.318Z,47.00
2022-08-10T17:12:57.742Z,46.90
2022-08-10T17:15:51.282Z,45.70
2022-08-10T17:18:39.109Z,44.10
2022-08-10T17:21:31.356Z,43.70
2022-08-10T17:24:18.927Z,42.80
2022-08-10T17:28:04.091Z,42.10
2022-08-10T17:30:30.015Z,41.50
2022-08-10T17:33:28.679Z,41.00
2022-08-10T17:36:16.932Z,41.40
2022-08-10T17:39:05.235Z,41.10
2022-08-10T17:41:54.624Z,40.50
2022-08-10T17:44:42.377Z,39.90
2022-08-10T17:47:29.765Z,39.40
2022-08-10T17:50:20.899Z,39.00
2022-08-10T17:53:17.675Z,38.60
2022-08-10T17:56:05.563Z,38.30
2022-08-10T17:58:57.502Z,38.00
2022-08-10T18:01:58.629Z,37.80
2022-08-10T18:04:51.280Z,37.80
2022-08-10T18:07:40.904Z,37.40
2022-08-10T18:10:27.246Z,37.10
2022-08-10T18:13:18.796Z,36.90
2022-08-10T18:16:07.592Z,36.60
2022-08-10T18:19:00.127Z,36.40
2022-08-10T18:21:49.023Z,36.20
2022-08-10T18:24:37.681Z,36.10
2022-08-10T18:28:00.964Z,35.80
2022-08-10T18:30:36.339Z,35.60
2022-08-10T18:33:37.308Z,35.50
2022-08-10T18:36:24.327Z,35.40
2022-08-10T18:39:12.836Z,35.20
2022-08-10T18:42:27.786Z,35.10
2022-08-10T18:45:16.254Z,35.00
2022-08-10T18:48:17.361Z,34.80
2022-08-10T18:51:06.481Z,34.70
2022-08-10T18:53:59.393Z,34.50
2022-08-10T18:56:56.282Z,34.40
2022-08-10T19:00:08.447Z,34.40
2022-08-10T19:03:07.213Z,34.20
2022-08-10T19:06:20.284Z,34.10
2022-08-10T19:09:47.425Z,34.00
2022-08-10T19:13:06.979Z,33.80
2022-08-10T19:16:35.766Z,33.80
2022-08-10T19:19:34.111Z,33.70
2022-08-10T19:22:51.002Z,33.40
2022-08-10T19:26:37.803Z,33.50
2022-08-10T19:29:05.236Z,33.30
2022-08-10T19:32:17.370Z,33.30
2022-08-10T19:35:22.778Z,33.20
2022-08-10T19:38:36.033Z,33.10
2022-08-10T19:41:42.040Z,33.00
2022-08-10T19:44:54.966Z,32.80
2022-08-10T19:48:06.155Z,32.80
2022-08-10T19:51:23.340Z,32.60
2022-08-10T19:54:24.886Z,32.60
2022-08-10T19:57:29.187Z,32.50
2022-08-10T20:00:22.799Z,32.40
2022-08-10T20:03:14.632Z,32.40
2022-08-10T20:06:37.725Z,32.40
2022-08-10T20:09:30.106Z,32.30
2022-08-10T20:12:42.676Z,32.20
2022-08-10T20:15:51.360Z,32.00
2022-08-10T20:18:43.593Z,32.00
2022-08-10T20:21:47.055Z,32.00
2022-08-10T20:24:52.479Z,32.00
2022-08-10T20:28:00.508Z,31.90
2022-08-10T20:30:53.004Z,31.80
2022-08-10T20:33:42.786Z,31.80
2022-08-10T20:36:36.693Z,31.80
2022-08-10T20:39:49.198Z,31.80
2022-08-10T20:43:07.049Z,31.60
2022-08-10T20:46:11.188Z,31.70
2022-08-10T20:49:04.272Z,31.60
2022-08-10T20:52:00.261Z,31.60
2022-08-10T20:54:52.225Z,31.50
2022-08-10T20:58:06.435Z,31.50
2022-08-10T21:01:17.383Z,31.40
2022-08-10T21:04:19.987Z,31.40
2022-08-10T21:07:43.993Z,31.20
2022-08-10T21:11:04.647Z,31.30
2022-08-10T21:14:01.762Z,31.20
2022-08-10T21:17:16.849Z,31.20
2022-08-10T21:20:31.065Z,31.10
2022-08-10T21:23:19.716Z,31.10
2022-08-10T21:26:15.042Z,31.00
2022-08-10T21:29:39.809Z,31.00
2022-08-10T21:32:43.976Z,30.90
2022-08-10T21:35:42.543Z,30.90
2022-08-10T21:38:40.812Z,30.80
2022-08-10T21:42:17.019Z,30.80
2022-08-10T21:45:58.758Z,30.70
2022-08-10T21:49:22.929Z,30.70
2022-08-10T21:52:53.499Z,30.60
2022-08-10T21:56:14.602Z,30.60
2022-08-10T21:59:34.992Z,30.50
2022-08-10T22:02:50.939Z,30.50
2022-08-10T22:05:58.016Z,30.40
2022-08-10T22:09:06.760Z,30.30
2022-08-10T22:12:31.020Z,30.20
2022-08-10T22:15:42.486Z,30.10
2022-08-10T22:19:14.532Z,30.20
2022-08-10T22:22:35.361Z,30.10
2022-08-10T22:25:46.643Z,30.10
2022-08-10T22:29:09.446Z,30.10
2022-08-10T22:32:35.089Z,30.00
2022-08-10T22:36:11.712Z,29.90
2022-08-10T22:40:05.893Z,29.90
2022-08-10T22:43:35.561Z,29.90
2022-08-10T22:46:51.447Z,29.90
2022-08-10T22:49:37.441Z,29.80
2022-08-10T22:52:27.953Z,29.90
2022-08-10T22:55:42.225Z,29.70
2022-08-10T22:58:40.928Z,29.70
2022-08-10T23:02:08.206Z,29.70
2022-08-10T23:05:02.576Z,29.70
2022-08-10T23:08:02.704Z,29.60
2022-08-10T23:10:51.416Z,29.50
2022-08-10T23:13:44.761Z,29.60
2022-08-10T23:17:00.998Z,29.60
2022-08-10T23:20:17.231Z,29.50
2022-08-10T23:23:09.795Z,29.50
2022-08-10T23:25:59.696Z,29.50
2022-08-10T23:28:58.188Z,29.40
2022-08-10T23:32:06.705Z,29.40
2022-08-10T23:36:31.497Z,29.30
2022-08-10T23:38:03.468Z,29.20
2022-08-10T23:40:53.745Z,29.20
2022-08-10T23:44:04.095Z,29.20
2022-08-10T23:46:52.226Z,29.20
2022-08-10T23:49:39.372Z,29.10
2022-08-10T23:52:33.765Z,29.00
2022-08-10T23:55:23.437Z,29.00
2022-08-10T23:58:33.000Z,28.90
